sensor_id;sensor_type;location;lat;lon;timestamp;pressure;altitude;pressure_sealevel;temperature;humidity
23643;BME280;11998;55.788;37.572;2023-05-01T00:00:25;97773.03;;;76.54;5.24
23643;BME280;11998;55.788;37.572;2023-05-01T00:01:26;97769.63;;;76.61;5.42
23643;BME280;11998;55.788;37.572;2023-05-01T00:02:26;97757.75;;;75.14;5.76
23643;BME280;11998;55.788;37.572;2023-05-01T00:03:27;97747.03;;;72.75;6.09
23643;BME280;11998;55.788;37.572;2023-05-01T00:04:28;97749.53;;;74.43;5.79
23643;BME280;11998;55.788;37.572;2023-05-01T00:05:28;97735.34;;;71.91;6.33
23643;BME280;11998;55.788;37.572;2023-05-01T00:06:29;97749.97;;;73.91;5.99
23643;BME280;11998;55.788;37.572;2023-05-01T00:07:30;97744.38;;;73.49;5.83
23643;BME280;11998;55.788;37.572;2023-05-01T00:08:31;97734.75;;;72.29;6.16
23643;BME280;11998;55.788;37.572;2023-05-01T00:09:32;97728.84;;;72.05;6.41
23643;BME280;11998;55.788;37.572;2023-05-01T00:10:34;97737.00;;;71.18;6.51
23643;BME280;11998;55.788;37.572;2023-05-01T00:11:35;97737.69;;;72.29;6.47
23643;BME280;11998;55.788;37.572;2023-05-01T00:12:36;97740.34;;;72.08;6.38
23643;BME280;11998;55.788;37.572;2023-05-01T00:13:37;97741.25;;;71.72;6.25
23643;BME280;11998;55.788;37.572;2023-05-01T00:14:40;97749.09;;;72.42;6.36
23643;BME280;11998;55.788;37.572;2023-05-01T00:15:41;97744.31;;;72.29;6.49
23643;BME280;11998;55.788;37.572;2023-05-01T00:16:42;97736.66;;;73.61;5.91
23643;BME280;11998;55.788;37.572;2023-05-01T00:17:42;97747.94;;;73.29;6.29
23643;BME280;11998;55.788;37.572;2023-05-01T00:18:43;97751.06;;;73.79;5.98
23643;BME280;11998;55.788;37.572;2023-05-01T00:19:44;97748.00;;;71.88;6.44
23643;BME280;11998;55.788;37.572;2023-05-01T00:20:44;97737.50;;;72.65;6.04
23643;BME280;11998;55.788;37.572;2023-05-01T00:21:45;97745.78;;;73.15;6.13
23643;BME280;11998;55.788;37.572;2023-05-01T00:22:47;97742.47;;;68.19;7.50
23643;BME280;11998;55.788;37.572;2023-05-01T00:23:48;97749.84;;;70.72;6.67
23643;BME280;11998;55.788;37.572;2023-05-01T00:24:48;97750.78;;;71.27;6.67
23643;BME280;11998;55.788;37.572;2023-05-01T00:25:49;97749.16;;;72.32;6.37
23643;BME280;11998;55.788;37.572;2023-05-01T00:26:50;97743.53;;;72.62;6.13
23643;BME280;11998;55.788;37.572;2023-05-01T00:27:50;97755.38;;;72.07;6.50
23643;BME280;11998;55.788;37.572;2023-05-01T00:28:51;97753.16;;;72.44;6.45
23643;BME280;11998;55.788;37.572;2023-05-01T00:29:55;97748.91;;;72.54;6.11
23643;BME280;11998;55.788;37.572;2023-05-01T00:30:56;97757.84;;;73.08;5.90
23643;BME280;11998;55.788;37.572;2023-05-01T00:31:57;97763.31;;;73.53;6.11
23643;BME280;11998;55.788;37.572;2023-05-01T00:32:57;97773.16;;;73.41;5.95
23643;BME280;11998;55.788;37.572;2023-05-01T00:34:01;97778.63;;;73.48;6.06
23643;BME280;11998;55.788;37.572;2023-05-01T00:35:02;97763.72;;;73.46;5.79
23643;BME280;11998;55.788;37.572;2023-05-01T00:36:02;97761.53;;;70.09;7.00
23643;BME280;11998;55.788;37.572;2023-05-01T00:37:03;97761.94;;;71.83;6.59
23643;BME280;11998;55.788;37.572;2023-05-01T00:38:04;97774.84;;;73.33;6.17
23643;BME280;11998;55.788;37.572;2023-05-01T00:39:05;97776.81;;;72.79;6.14
23643;BME280;11998;55.788;37.572;2023-05-01T00:40:07;97781.03;;;72.78;6.18
23643;BME280;11998;55.788;37.572;2023-05-01T00:41:08;97782.47;;;73.31;6.25
23643;BME280;11998;55.788;37.572;2023-05-01T00:42:09;97773.13;;;73.80;6.09
23643;BME280;11998;55.788;37.572;2023-05-01T00:43:10;97776.09;;;73.41;6.02
23643;BME280;11998;55.788;37.572;2023-05-01T00:44:11;97773.84;;;72.55;6.21
23643;BME280;11998;55.788;37.572;2023-05-01T00:45:12;97758.75;;;72.15;6.10
23643;BME280;11998;55.788;37.572;2023-05-01T00:46:13;97772.75;;;72.44;6.45
23643;BME280;11998;55.788;37.572;2023-05-01T00:47:14;97768.50;;;73.11;5.97
23643;BME280;11998;55.788;37.572;2023-05-01T00:48:15;97763.63;;;72.60;6.05
23643;BME280;11998;55.788;37.572;2023-05-01T00:49:16;97762.84;;;72.08;6.28
23643;BME280;11998;55.788;37.572;2023-05-01T00:50:17;97759.56;;;72.15;6.22
23643;BME280;11998;55.788;37.572;2023-05-01T00:51:19;97756.47;;;72.70;6.34
23643;BME280;11998;55.788;37.572;2023-05-01T00:52:20;97756.94;;;74.08;5.74
23643;BME280;11998;55.788;37.572;2023-05-01T00:53:22;97761.16;;;74.07;5.89
23643;BME280;11998;55.788;37.572;2023-05-01T00:54:24;97750.47;;;74.04;5.85
23643;BME280;11998;55.788;37.572;2023-05-01T00:55:27;97748.75;;;73.83;5.98
23643;BME280;11998;55.788;37.572;2023-05-01T00:56:34;97752.69;;;74.09;6.04
23643;BME280;11998;55.788;37.572;2023-05-01T00:57:35;97741.38;;;73.58;6.11
23643;BME280;11998;55.788;37.572;2023-05-01T00:58:37;97743.28;;;75.05;5.78
23643;BME280;11998;55.788;37.572;2023-05-01T00:59:37;97741.19;;;75.52;5.35
23643;BME280;11998;55.788;37.572;2023-05-01T01:00:38;97736.56;;;76.23;5.39
23643;BME280;11998;55.788;37.572;2023-05-01T01:01:42;97724.22;;;75.56;5.38
23643;BME280;11998;55.788;37.572;2023-05-01T01:02:43;97725.91;;;75.42;5.65
23643;BME280;11998;55.788;37.572;2023-05-01T01:03:44;97713.75;;;75.75;5.59
23643;BME280;11998;55.788;37.572;2023-05-01T01:04:46;97719.72;;;75.35;5.47
23643;BME280;11998;55.788;37.572;2023-05-01T01:06:03;97713.31;;;75.57;5.26
23643;BME280;11998;55.788;37.572;2023-05-01T01:07:11;97720.34;;;73.98;5.76
23643;BME280;11998;55.788;37.572;2023-05-01T01:08:28;97726.38;;;73.65;5.86
23643;BME280;11998;55.788;37.572;2023-05-01T01:12:18;97741.31;;;73.82;5.80
23643;BME280;11998;55.788;37.572;2023-05-01T01:13:31;97733.59;;;73.40;5.91
23643;BME280;11998;55.788;37.572;2023-05-01T01:16:08;97758.16;;;72.53;6.07
23643;BME280;11998;55.788;37.572;2023-05-01T01:17:35;97759.75;;;73.35;5.77
23643;BME280;11998;55.788;37.572;2023-05-01T01:18:53;97771.53;;;74.38;5.61
23643;BME280;11998;55.788;37.572;2023-05-01T01:21:30;97781.41;;;75.77;5.34
23643;BME280;11998;55.788;37.572;2023-05-01T01:22:34;97793.50;;;75.85;5.07
23643;BME280;11998;55.788;37.572;2023-05-01T01:25:32;97792.56;;;76.25;5.57
23643;BME280;11998;55.788;37.572;2023-05-01T01:28:29;97793.22;;;75.63;5.58
23643;BME280;11998;55.788;37.572;2023-05-01T01:31:59;97800.13;;;76.69;5.43
23643;BME280;11998;55.788;37.572;2023-05-01T01:34:17;97784.13;;;76.76;5.04
23643;BME280;11998;55.788;37.572;2023-05-01T01:35:24;97778.09;;;76.90;5.47
23643;BME280;11998;55.788;37.572;2023-05-01T01:36:38;97791.13;;;77.32;5.23
23643;BME280;11998;55.788;37.572;2023-05-01T01:37:48;97781.00;;;77.33;5.31
23643;BME280;11998;55.788;37.572;2023-05-01T01:38:59;97777.56;;;76.86;5.04
23643;BME280;11998;55.788;37.572;2023-05-01T01:40:10;97765.56;;;76.90;5.32
23643;BME280;11998;55.788;37.572;2023-05-01T01:41:18;97768.81;;;76.98;5.32
23643;BME280;11998;55.788;37.572;2023-05-01T01:42:25;97747.75;;;75.93;5.28
23643;BME280;11998;55.788;37.572;2023-05-01T01:43:32;97736.16;;;75.53;5.37
23643;BME280;11998;55.788;37.572;2023-05-01T01:44:49;97734.22;;;75.96;5.52
23643;BME280;11998;55.788;37.572;2023-05-01T01:45:58;97744.97;;;76.42;5.47
23643;BME280;11998;55.788;37.572;2023-05-01T01:47:01;97735.94;;;74.25;5.66
23643;BME280;11998;55.788;37.572;2023-05-01T01:48:06;97746.47;;;74.52;5.87
23643;BME280;11998;55.788;37.572;2023-05-01T01:49:15;97740.91;;;74.04;5.61
23643;BME280;11998;55.788;37.572;2023-05-01T01:50:19;97741.50;;;73.64;5.97
23643;BME280;11998;55.788;37.572;2023-05-01T01:51:24;97742.59;;;74.25;5.56
23643;BME280;11998;55.788;37.572;2023-05-01T01:52:27;97742.19;;;74.68;5.64
23643;BME280;11998;55.788;37.572;2023-05-01T01:53:30;97723.13;;;73.10;6.00
23643;BME280;11998;55.788;37.572;2023-05-01T01:54:37;97736.03;;;73.57;5.84
23643;BME280;11998;55.788;37.572;2023-05-01T01:55:39;97722.91;;;73.37;5.90
23643;BME280;11998;55.788;37.572;2023-05-01T01:56:40;97717.94;;;73.82;6.04
23643;BME280;11998;55.788;37.572;2023-05-01T01:57:43;97715.44;;;73.21;5.90
23643;BME280;11998;55.788;37.572;2023-05-01T01:58:46;97707.50;;;73.22;6.01
23643;BME280;11998;55.788;37.572;2023-05-01T01:59:48;97713.66;;;71.92;6.37
23643;BME280;11998;55.788;37.572;2023-05-01T02:00:51;97705.41;;;72.75;6.11
23643;BME280;11998;55.788;37.572;2023-05-01T02:01:54;97718.34;;;73.21;6.01
23643;BME280;11998;55.788;37.572;2023-05-01T02:02:57;97730.22;;;73.18;6.02
23643;BME280;11998;55.788;37.572;2023-05-01T02:04:00;97740.88;;;73.60;5.94
23643;BME280;11998;55.788;37.572;2023-05-01T02:05:04;97750.81;;;74.56;5.82
23643;BME280;11998;55.788;37.572;2023-05-01T02:06:07;97758.22;;;75.28;5.29
23643;BME280;11998;55.788;37.572;2023-05-01T02:07:08;97750.44;;;75.25;5.51
23643;BME280;11998;55.788;37.572;2023-05-01T02:08:11;97747.47;;;75.19;5.55
23643;BME280;11998;55.788;37.572;2023-05-01T02:09:16;97738.25;;;75.72;5.35
23643;BME280;11998;55.788;37.572;2023-05-01T02:10:19;97728.72;;;75.11;5.49
23643;BME280;11998;55.788;37.572;2023-05-01T02:11:22;97721.13;;;74.28;5.88
23643;BME280;11998;55.788;37.572;2023-05-01T02:12:25;97706.84;;;73.57;6.10
23643;BME280;11998;55.788;37.572;2023-05-01T02:13:27;97704.22;;;72.15;6.17
23643;BME280;11998;55.788;37.572;2023-05-01T02:14:29;97704.84;;;73.92;6.09
23643;BME280;11998;55.788;37.572;2023-05-01T02:15:31;97703.19;;;73.32;5.92
23643;BME280;11998;55.788;37.572;2023-05-01T02:16:33;97713.72;;;73.83;5.75
23643;BME280;11998;55.788;37.572;2023-05-01T02:17:37;97719.00;;;75.19;5.71
23643;BME280;11998;55.788;37.572;2023-05-01T02:18:39;97717.50;;;75.30;5.60
23643;BME280;11998;55.788;37.572;2023-05-01T02:19:40;97728.22;;;75.33;5.48
23643;BME280;11998;55.788;37.572;2023-05-01T02:20:43;97731.91;;;74.92;5.40
23643;BME280;11998;55.788;37.572;2023-05-01T02:21:44;97728.88;;;73.43;5.89
23643;BME280;11998;55.788;37.572;2023-05-01T02:22:47;97736.34;;;73.59;6.04
23643;BME280;11998;55.788;37.572;2023-05-01T02:23:48;97723.97;;;73.64;6.07
23643;BME280;11998;55.788;37.572;2023-05-01T02:24:49;97721.50;;;71.58;6.22
23643;BME280;11998;55.788;37.572;2023-05-01T02:25:52;97716.00;;;71.42;6.47
23643;BME280;11998;55.788;37.572;2023-05-01T02:26:56;97722.16;;;71.35;6.54
23643;BME280;11998;55.788;37.572;2023-05-01T02:28:02;97714.34;;;71.96;6.31
23643;BME280;11998;55.788;37.572;2023-05-01T02:29:06;97720.06;;;72.14;6.28
23643;BME280;11998;55.788;37.572;2023-05-01T02:30:07;97714.16;;;72.32;6.39
23643;BME280;11998;55.788;37.572;2023-05-01T02:31:09;97718.88;;;70.37;6.83
23643;BME280;11998;55.788;37.572;2023-05-01T02:32:10;97707.84;;;71.92;6.46
23643;BME280;11998;55.788;37.572;2023-05-01T02:33:11;97691.50;;;72.36;6.22
23643;BME280;11998;55.788;37.572;2023-05-01T02:34:12;97700.63;;;69.75;6.73
23643;BME280;11998;55.788;37.572;2023-05-01T02:35:12;97692.91;;;71.47;6.73
23643;BME280;11998;55.788;37.572;2023-05-01T02:36:13;97691.78;;;72.48;6.35
23643;BME280;11998;55.788;37.572;2023-05-01T02:37:14;97694.78;;;72.86;6.36
23643;BME280;11998;55.788;37.572;2023-05-01T02:38:15;97699.09;;;73.15;6.20
23643;BME280;11998;55.788;37.572;2023-05-01T02:39:16;97687.91;;;72.42;6.20
23643;BME280;11998;55.788;37.572;2023-05-01T02:40:18;97684.94;;;70.75;6.76
23643;BME280;11998;55.788;37.572;2023-05-01T02:41:21;97697.31;;;71.94;6.40
23643;BME280;11998;55.788;37.572;2023-05-01T02:42:23;97705.13;;;71.79;6.23
23643;BME280;11998;55.788;37.572;2023-05-01T02:43:26;97710.88;;;72.49;6.28
23643;BME280;11998;55.788;37.572;2023-05-01T02:44:32;97720.00;;;72.32;6.09
23643;BME280;11998;55.788;37.572;2023-05-01T02:45:39;97728.97;;;73.48;6.27
23643;BME280;11998;55.788;37.572;2023-05-01T02:46:42;97728.84;;;72.05;6.16
23643;BME280;11998;55.788;37.572;2023-05-01T02:47:47;97740.19;;;73.26;5.92
23643;BME280;11998;55.788;37.572;2023-05-01T02:48:49;97761.06;;;73.87;5.97
23643;BME280;11998;55.788;37.572;2023-05-01T02:49:51;97754.22;;;73.90;6.04
23643;BME280;11998;55.788;37.572;2023-05-01T02:50:54;97756.34;;;74.19;5.74
23643;BME280;11998;55.788;37.572;2023-05-01T02:51:56;97764.88;;;74.38;5.60
23643;BME280;11998;55.788;37.572;2023-05-01T02:52:57;97767.41;;;73.32;6.23
23643;BME280;11998;55.788;37.572;2023-05-01T02:53:58;97775.38;;;74.15;5.67
23643;BME280;11998;55.788;37.572;2023-05-01T02:54:59;97779.06;;;74.80;5.85
23643;BME280;11998;55.788;37.572;2023-05-01T02:56:02;97775.50;;;74.55;5.64
23643;BME280;11998;55.788;37.572;2023-05-01T02:57:03;97784.91;;;74.80;5.58
23643;BME280;11998;55.788;37.572;2023-05-01T02:58:04;97785.56;;;75.25;5.45
23643;BME280;11998;55.788;37.572;2023-05-01T02:59:05;97789.13;;;75.75;5.44
23643;BME280;11998;55.788;37.572;2023-05-01T03:00:06;97786.72;;;75.73;5.61
23643;BME280;11998;55.788;37.572;2023-05-01T03:01:08;97789.50;;;75.42;5.43
23643;BME280;11998;55.788;37.572;2023-05-01T03:02:10;97795.56;;;76.05;5.34
23643;BME280;11998;55.788;37.572;2023-05-01T03:03:11;97791.06;;;76.10;5.50
23643;BME280;11998;55.788;37.572;2023-05-01T03:04:12;97789.34;;;76.60;5.13
23643;BME280;11998;55.788;37.572;2023-05-01T03:05:12;97793.56;;;76.54;5.08
23643;BME280;11998;55.788;37.572;2023-05-01T03:06:13;97788.91;;;76.68;5.43
23643;BME280;11998;55.788;37.572;2023-05-01T03:07:13;97791.75;;;76.94;5.38
23643;BME280;11998;55.788;37.572;2023-05-01T03:08:14;97792.66;;;76.68;5.38
23643;BME280;11998;55.788;37.572;2023-05-01T03:09:15;97785.75;;;76.77;5.33
23643;BME280;11998;55.788;37.572;2023-05-01T03:10:16;97786.84;;;75.64;5.36
23643;BME280;11998;55.788;37.572;2023-05-01T03:11:17;97791.69;;;76.51;5.18
23643;BME280;11998;55.788;37.572;2023-05-01T03:12:17;97780.13;;;76.73;5.32
23643;BME280;11998;55.788;37.572;2023-05-01T03:13:18;97791.56;;;77.14;5.30
23643;BME280;11998;55.788;37.572;2023-05-01T03:14:19;97772.72;;;76.15;5.24
23643;BME280;11998;55.788;37.572;2023-05-01T03:15:19;97781.09;;;76.59;5.14
23643;BME280;11998;55.788;37.572;2023-05-01T03:16:20;97774.31;;;76.84;5.07
23643;BME280;11998;55.788;37.572;2023-05-01T03:17:21;97774.63;;;76.86;5.12
23643;BME280;11998;55.788;37.572;2023-05-01T03:18:21;97771.53;;;76.64;5.36
23643;BME280;11998;55.788;37.572;2023-05-01T03:19:22;97780.63;;;76.03;5.14
23643;BME280;11998;55.788;37.572;2023-05-01T03:20:23;97766.69;;;75.46;5.62
23643;BME280;11998;55.788;37.572;2023-05-01T03:21:23;97767.13;;;74.98;5.75
23643;BME280;11998;55.788;37.572;2023-05-01T03:22:28;97761.28;;;75.18;5.73
23643;BME280;11998;55.788;37.572;2023-05-01T03:23:29;97765.50;;;75.17;5.62
23643;BME280;11998;55.788;37.572;2023-05-01T03:24:29;97757.50;;;75.33;5.73
23643;BME280;11998;55.788;37.572;2023-05-01T03:25:30;97761.59;;;75.93;5.53
23643;BME280;11998;55.788;37.572;2023-05-01T03:26:30;97773.34;;;76.24;5.44
23643;BME280;11998;55.788;37.572;2023-05-01T03:27:32;97763.53;;;75.96;5.53
23643;BME280;11998;55.788;37.572;2023-05-01T03:28:33;97773.91;;;76.28;5.26
23643;BME280;11998;55.788;37.572;2023-05-01T03:29:34;97772.44;;;76.13;5.32
23643;BME280;11998;55.788;37.572;2023-05-01T03:30:34;97783.22;;;75.49;5.24
23643;BME280;11998;55.788;37.572;2023-05-01T03:31:35;97767.38;;;74.80;5.87
23643;BME280;11998;55.788;37.572;2023-05-01T03:32:36;97768.16;;;74.95;5.46
23643;BME280;11998;55.788;37.572;2023-05-01T03:33:36;97772.84;;;75.28;5.81
23643;BME280;11998;55.788;37.572;2023-05-01T03:34:37;97772.69;;;75.16;5.59
23643;BME280;11998;55.788;37.572;2023-05-01T03:35:37;97768.59;;;75.29;5.45
23643;BME280;11998;55.788;37.572;2023-05-01T03:36:38;97769.75;;;75.57;5.34
23643;BME280;11998;55.788;37.572;2023-05-01T03:37:39;97764.53;;;74.50;5.56
23643;BME280;11998;55.788;37.572;2023-05-01T03:38:40;97768.44;;;73.97;5.84
23643;BME280;11998;55.788;37.572;2023-05-01T03:39:41;97764.06;;;73.78;5.77
23643;BME280;11998;55.788;37.572;2023-05-01T03:40:42;97762.34;;;74.30;5.89
23643;BME280;11998;55.788;37.572;2023-05-01T03:41:43;97764.97;;;74.28;5.92
23643;BME280;11998;55.788;37.572;2023-05-01T03:42:44;97763.66;;;74.44;5.66
23643;BME280;11998;55.788;37.572;2023-05-01T03:43:45;97763.34;;;74.42;5.80
23643;BME280;11998;55.788;37.572;2023-05-01T03:44:45;97763.16;;;74.16;5.64
23643;BME280;11998;55.788;37.572;2023-05-01T03:45:46;97758.44;;;74.19;6.01
23643;BME280;11998;55.788;37.572;2023-05-01T03:46:46;97764.88;;;74.23;5.66
23643;BME280;11998;55.788;37.572;2023-05-01T03:47:47;97767.63;;;73.43;6.01
23643;BME280;11998;55.788;37.572;2023-05-01T03:48:47;97767.72;;;73.10;5.95
23643;BME280;11998;55.788;37.572;2023-05-01T03:49:48;97773.28;;;73.62;6.06
23643;BME280;11998;55.788;37.572;2023-05-01T03:50:49;97765.28;;;72.43;6.27
23643;BME280;11998;55.788;37.572;2023-05-01T03:51:49;97772.84;;;72.91;5.92
23643;BME280;11998;55.788;37.572;2023-05-01T03:52:50;97770.19;;;73.27;6.13
23643;BME280;11998;55.788;37.572;2023-05-01T03:53:53;97775.56;;;73.82;5.79
23643;BME280;11998;55.788;37.572;2023-05-01T03:54:56;97772.03;;;73.92;5.90
23643;BME280;11998;55.788;37.572;2023-05-01T03:55:56;97778.50;;;74.11;5.97
23643;BME280;11998;55.788;37.572;2023-05-01T03:56:57;97781.50;;;73.34;5.90
23643;BME280;11998;55.788;37.572;2023-05-01T03:57:57;97773.28;;;72.66;5.94
23643;BME280;11998;55.788;37.572;2023-05-01T03:58:58;97769.09;;;72.34;6.39
23643;BME280;11998;55.788;37.572;2023-05-01T03:59:59;97770.31;;;71.81;6.33
23643;BME280;11998;55.788;37.572;2023-05-01T04:01:00;97775.50;;;71.96;6.53
23643;BME280;11998;55.788;37.572;2023-05-01T04:02:02;97770.84;;;72.31;6.30
23643;BME280;11998;55.788;37.572;2023-05-01T04:03:04;97770.84;;;72.31;6.37
23643;BME280;11998;55.788;37.572;2023-05-01T04:04:05;97775.69;;;71.46;6.56
23643;BME280;11998;55.788;37.572;2023-05-01T04:05:07;97780.38;;;72.83;6.37
23643;BME280;11998;55.788;37.572;2023-05-01T04:06:09;97772.41;;;72.51;6.17
23643;BME280;11998;55.788;37.572;2023-05-01T04:07:09;97770.06;;;72.64;6.14
23643;BME280;11998;55.788;37.572;2023-05-01T04:08:10;97765.53;;;72.72;6.05
23643;BME280;11998;55.788;37.572;2023-05-01T04:09:11;97770.81;;;72.50;6.07
23643;BME280;11998;55.788;37.572;2023-05-01T04:10:12;97763.09;;;72.28;6.29
23643;BME280;11998;55.788;37.572;2023-05-01T04:11:13;97770.44;;;72.57;6.20
23643;BME280;11998;55.788;37.572;2023-05-01T04:12:13;97764.28;;;73.12;6.28
23643;BME280;11998;55.788;37.572;2023-05-01T04:13:15;97768.72;;;73.07;6.23
23643;BME280;11998;55.788;37.572;2023-05-01T04:14:15;97765.16;;;73.27;5.99
23643;BME280;11998;55.788;37.572;2023-05-01T04:15:16;97765.56;;;73.20;6.09
23643;BME280;11998;55.788;37.572;2023-05-01T04:16:16;97775.28;;;73.94;5.78
23643;BME280;11998;55.788;37.572;2023-05-01T04:17:17;97768.63;;;72.92;6.25
23643;BME280;11998;55.788;37.572;2023-05-01T04:18:18;97769.28;;;72.97;6.16
23643;BME280;11998;55.788;37.572;2023-05-01T04:19:18;97778.34;;;72.14;6.04
23643;BME280;11998;55.788;37.572;2023-05-01T04:20:19;97772.25;;;71.11;6.62
23643;BME280;11998;55.788;37.572;2023-05-01T04:21:19;97773.56;;;71.29;6.63
23643;BME280;11998;55.788;37.572;2023-05-01T04:22:20;97772.28;;;71.66;6.41
23643;BME280;11998;55.788;37.572;2023-05-01T04:23:22;97778.34;;;72.14;6.49
23643;BME280;11998;55.788;37.572;2023-05-01T04:24:23;97779.41;;;71.47;6.50
23643;BME280;11998;55.788;37.572;2023-05-01T04:25:23;97775.22;;;72.45;6.23
23643;BME280;11998;55.788;37.572;2023-05-01T04:26:24;97779.94;;;72.66;6.20
23643;BME280;11998;55.788;37.572;2023-05-01T04:27:25;97786.78;;;73.59;5.81
23643;BME280;11998;55.788;37.572;2023-05-01T04:28:26;97787.75;;;72.60;6.14
23643;BME280;11998;55.788;37.572;2023-05-01T04:29:33;97786.78;;;73.44;5.86
23643;BME280;11998;55.788;37.572;2023-05-01T04:30:33;97781.53;;;73.48;6.19
23643;BME280;11998;55.788;37.572;2023-05-01T04:31:34;97775.91;;;73.60;6.11
23643;BME280;11998;55.788;37.572;2023-05-01T04:32:35;97785.66;;;74.25;5.63
23643;BME280;11998;55.788;37.572;2023-05-01T04:33:36;97785.66;;;74.75;5.71
23643;BME280;11998;55.788;37.572;2023-05-01T04:34:36;97783.50;;;74.90;5.45
23643;BME280;11998;55.788;37.572;2023-05-01T04:35:37;97785.22;;;74.02;6.04
23643;BME280;11998;55.788;37.572;2023-05-01T04:36:38;97778.59;;;73.87;5.95
23643;BME280;11998;55.788;37.572;2023-05-01T04:37:39;97780.69;;;74.31;5.79
23643;BME280;11998;55.788;37.572;2023-05-01T04:38:39;97787.59;;;73.60;6.10
23643;BME280;11998;55.788;37.572;2023-05-01T04:39:40;97781.66;;;73.30;5.97
23643;BME280;11998;55.788;37.572;2023-05-01T04:40:41;97785.44;;;73.99;5.70
23643;BME280;11998;55.788;37.572;2023-05-01T04:41:42;97791.06;;;73.73;5.81
23643;BME280;11998;55.788;37.572;2023-05-01T04:42:43;97791.81;;;73.59;6.01
23643;BME280;11998;55.788;37.572;2023-05-01T04:43:43;97793.25;;;73.78;5.86
23643;BME280;11998;55.788;37.572;2023-05-01T04:44:44;97789.66;;;73.83;5.69
23643;BME280;11998;55.788;37.572;2023-05-01T04:45:48;97792.16;;;73.75;5.83
23643;BME280;11998;55.788;37.572;2023-05-01T04:46:48;97794.09;;;73.93;6.03
23643;BME280;11998;55.788;37.572;2023-05-01T04:47:49;97783.69;;;73.24;6.04
23643;BME280;11998;55.788;37.572;2023-05-01T04:48:49;97791.19;;;73.16;6.28
23643;BME280;11998;55.788;37.572;2023-05-01T04:49:50;97797.69;;;72.45;6.09
23643;BME280;11998;55.788;37.572;2023-05-01T04:51:00;97793.25;;;72.91;5.96
23643;BME280;11998;55.788;37.572;2023-05-01T04:52:16;97797.03;;;73.55;5.73
23643;BME280;11998;55.788;37.572;2023-05-01T04:53:19;97808.63;;;74.32;5.81
23643;BME280;11998;55.788;37.572;2023-05-01T04:54:25;97810.31;;;74.53;5.81
23643;BME280;11998;55.788;37.572;2023-05-01T04:57:00;97817.63;;;74.78;5.63
23643;BME280;11998;55.788;37.572;2023-05-01T04:58:12;97817.34;;;75.11;5.70
23643;BME280;11998;55.788;37.572;2023-05-01T04:59:13;97806.06;;;75.45;5.63
23643;BME280;11998;55.788;37.572;2023-05-01T05:00:13;97811.47;;;75.11;5.59
23643;BME280;11998;55.788;37.572;2023-05-01T05:01:14;97814.25;;;75.41;5.46
23643;BME280;11998;55.788;37.572;2023-05-01T05:02:14;97821.41;;;74.99;5.44
23643;BME280;11998;55.788;37.572;2023-05-01T05:03:15;97825.13;;;75.55;5.39
23643;BME280;11998;55.788;37.572;2023-05-01T05:04:18;97822.25;;;75.40;5.46
23643;BME280;11998;55.788;37.572;2023-05-01T05:05:22;97819.38;;;75.05;5.55
23643;BME280;11998;55.788;37.572;2023-05-01T05:06:25;97812.63;;;74.49;5.98
23643;BME280;11998;55.788;37.572;2023-05-01T05:07:25;97812.63;;;74.99;5.70
23643;BME280;11998;55.788;37.572;2023-05-01T05:08:26;97814.56;;;75.43;5.62
23643;BME280;11998;55.788;37.572;2023-05-01T05:09:26;97819.78;;;75.80;5.85
23643;BME280;11998;55.788;37.572;2023-05-01T05:10:27;97814.13;;;75.50;5.39
23643;BME280;11998;55.788;37.572;2023-05-01T05:11:27;97811.75;;;75.74;5.50
23643;BME280;11998;55.788;37.572;2023-05-01T05:12:28;97825.66;;;75.80;5.59
23643;BME280;11998;55.788;37.572;2023-05-01T05:13:28;97822.47;;;75.37;5.43
23643;BME280;11998;55.788;37.572;2023-05-01T05:14:30;97809.16;;;75.36;5.46
23643;BME280;11998;55.788;37.572;2023-05-01T05:15:30;97817.72;;;75.86;5.35
23643;BME280;11998;55.788;37.572;2023-05-01T05:16:31;97812.34;;;76.30;5.26
23643;BME280;11998;55.788;37.572;2023-05-01T05:17:32;97819.56;;;76.35;5.18
23643;BME280;11998;55.788;37.572;2023-05-01T05:18:32;97814.88;;;76.49;5.23
23643;BME280;11998;55.788;37.572;2023-05-01T05:19:33;97810.09;;;76.88;5.31
23643;BME280;11998;55.788;37.572;2023-05-01T05:20:37;97823.25;;;76.99;5.53
23643;BME280;11998;55.788;37.572;2023-05-01T05:21:37;97819.25;;;77.02;5.12
23643;BME280;11998;55.788;37.572;2023-05-01T05:22:38;97825.72;;;77.11;5.27
23643;BME280;11998;55.788;37.572;2023-05-01T05:23:38;97824.91;;;76.68;5.49
23643;BME280;11998;55.788;37.572;2023-05-01T05:24:39;97823.44;;;76.89;5.15
23643;BME280;11998;55.788;37.572;2023-05-01T05:25:39;97818.47;;;76.64;5.50
23643;BME280;11998;55.788;37.572;2023-05-01T05:26:40;97814.41;;;76.93;5.78
23643;BME280;11998;55.788;37.572;2023-05-01T05:27:41;97814.22;;;76.65;5.27
23643;BME280;11998;55.788;37.572;2023-05-01T05:28:41;97812.50;;;76.53;5.55
23643;BME280;11998;55.788;37.572;2023-05-01T05:29:42;97806.56;;;76.79;5.44
23643;BME280;11998;55.788;37.572;2023-05-01T05:30:42;97811.00;;;77.06;5.50
23643;BME280;11998;55.788;37.572;2023-05-01T05:31:43;97815.84;;;77.14;5.19
23643;BME280;11998;55.788;37.572;2023-05-01T05:32:45;97819.25;;;77.02;5.35
23643;BME280;11998;55.788;37.572;2023-05-01T05:33:46;97818.97;;;76.94;5.29
23643;BME280;11998;55.788;37.572;2023-05-01T05:34:47;97825.00;;;76.79;5.17
23643;BME280;11998;55.788;37.572;2023-05-01T05:35:48;97820.50;;;76.21;5.37
23643;BME280;11998;55.788;37.572;2023-05-01T05:36:48;97831.84;;;76.39;5.49
23643;BME280;11998;55.788;37.572;2023-05-01T05:37:49;97824.88;;;76.05;5.51
23643;BME280;11998;55.788;37.572;2023-05-01T05:38:50;97824.16;;;76.42;5.51
23643;BME280;11998;55.788;37.572;2023-05-01T05:39:51;97827.91;;;76.79;5.42
23643;BME280;11998;55.788;37.572;2023-05-01T05:40:51;97817.94;;;75.56;5.39
23643;BME280;11998;55.788;37.572;2023-05-01T05:41:54;97822.22;;;75.81;5.64
23643;BME280;11998;55.788;37.572;2023-05-01T05:42:54;97811.53;;;76.30;5.37
23643;BME280;11998;55.788;37.572;2023-05-01T05:43:56;97818.47;;;76.64;5.42